Time;durP1;ratioP1;P1;durP2;ratioP2;P2;SDS_P1;SDS_P2;PMS_P1;PMS_P2;Temp;Humidity;BMP_temperature;BMP_pressure;BME280_temperature;BME280_humidity;BME280_pressure;Samples;Min_cycle;Max_cycle;Signal;HPM_P1;HPM_P2
2021/07/26 00:01:17;;;;;;;9.25;3.45;;;;;;;;;;143728;601;46012;-91
2021/07/26 00:03:44;;;;;;;6.40;3.20;;;;;;;;;;143728;612;46014;-94
2021/07/26 00:06:11;;;;;;;6.18;3.40;;;;;;;;;;143727;573;46920;-91
2021/07/26 00:08:41;;;;;;;6.65;3.17;;;;;;;;;;143725;623;45913;-91
2021/07/26 00:11:10;;;;;;;12.65;5.78;;;;;;;;;;143730;587;46013;-92
2021/07/26 00:13:38;;;;;;;12.37;7.28;;;;;;;;;;143724;596;46916;-91
2021/07/26 00:16:07;;;;;;;10.63;5.35;;;;;;;;;;143726;616;46012;-92
2021/07/26 00:18:38;;;;;;;8.88;4.05;;;;;;;;;;143723;569;46021;-94
2021/07/26 00:21:04;;;;;;;4.05;3.08;;;;;;;;;;143728;569;46012;-92
2021/07/26 00:23:31;;;;;;;8.18;3.67;;;;;;;;;;143729;579;45022;-92
2021/07/26 00:25:58;;;;;;;8.80;4.00;;;;;;;;;;143730;621;45033;-91
2021/07/26 00:28:26;;;;;;;15.98;3.12;;;;;;;;;;143726;627;46021;-92
2021/07/26 00:30:53;;;;;;;5.18;3.70;;;;;;;;;;143729;577;46012;-90
2021/07/26 00:36:43;;;;;;;8.73;3.33;;;;;;;;;;143727;587;46012;-89
2021/07/26 00:39:12;;;;;;;5.40;3.42;;;;;;;;;;143724;645;46020;-93
2021/07/26 00:41:40;;;;;;;3.50;3.20;;;;;;;;;;143728;644;46013;-90
2021/07/26 00:44:07;;;;;;;3.35;3.03;;;;;;;;;;143717;578;47023;-92
2021/07/26 00:46:35;;;;;;;4.37;3.08;;;;;;;;;;143728;584;46020;-90
2021/07/26 00:49:04;;;;;;;8.63;4.10;;;;;;;;;;143725;577;46021;-91
2021/07/26 00:51:31;;;;;;;5.25;3.42;;;;;;;;;;143726;572;46012;-91
2021/07/26 00:53:59;;;;;;;4.80;3.58;;;;;;;;;;143722;616;49020;-92
2021/07/26 00:56:27;;;;;;;5.40;3.72;;;;;;;;;;143727;608;46013;-90
2021/07/26 00:58:55;;;;;;;4.05;3.42;;;;;;;;;;143726;581;46014;-92
2021/07/26 01:01:22;;;;;;;7.40;3.83;;;;;;;;;;143728;563;46012;-91
2021/07/26 01:11:28;;;;;;;5.55;2.95;;;;;;;;;;143730;652;45021;-90
2021/07/26 01:13:55;;;;;;;5.10;2.97;;;;;;;;;;143725;573;46014;-93
2021/07/26 01:16:25;;;;;;;5.25;3.12;;;;;;;;;;143726;586;46020;-93
2021/07/26 01:19:01;;;;;;;4.95;2.90;;;;;;;;;;143724;595;47021;-91
2021/07/26 01:21:31;;;;;;;5.25;2.97;;;;;;;;;;143726;569;46020;-91
2021/07/26 01:23:58;;;;;;;5.25;2.40;;;;;;;;;;143728;563;45857;-91
2021/07/26 01:26:26;;;;;;;6.90;2.75;;;;;;;;;;143733;599;46021;-92
2021/07/26 01:28:57;;;;;;;12.10;3.22;;;;;;;;;;143724;570;46020;-92
2021/07/26 01:31:25;;;;;;;5.18;3.00;;;;;;;;;;143728;589;46012;-91
2021/07/26 01:33:52;;;;;;;6.80;2.80;;;;;;;;;;143727;671;46015;-91
2021/07/26 01:36:21;;;;;;;3.85;3.10;;;;;;;;;;143729;584;46012;-90
2021/07/26 01:38:51;;;;;;;5.28;3.20;;;;;;;;;;143727;615;46014;-90
2021/07/26 01:41:23;;;;;;;6.18;3.03;;;;;;;;;;143729;569;46012;-87
2021/07/26 01:44:03;;;;;;;4.80;3.10;;;;;;;;;;143728;626;46031;-90
2021/07/26 01:47:08;;;;;;;3.65;2.87;;;;;;;;;;143726;652;46916;-92
2021/07/26 01:50:07;;;;;;;5.05;3.37;;;;;;;;;;143725;590;46021;-93
2021/07/26 01:52:37;;;;;;;4.68;2.75;;;;;;;;;;143730;564;46012;-94
2021/07/26 01:55:06;;;;;;;7.37;2.97;;;;;;;;;;143726;633;46048;-91
2021/07/26 01:57:33;;;;;;;12.32;2.75;;;;;;;;;;143731;605;46013;-91
2021/07/26 02:00:03;;;;;;;3.85;3.20;;;;;;;;;;143723;584;46020;-89
2021/07/26 02:02:31;;;;;;;3.75;2.92;;;;;;;;;;143726;604;47000;-90
2021/07/26 02:04:58;;;;;;;10.32;3.67;;;;;;;;;;143724;627;46023;-92
2021/07/26 02:07:25;;;;;;;6.68;3.40;;;;;;;;;;143730;592;46020;-95
2021/07/26 02:09:52;;;;;;;5.15;2.90;;;;;;;;;;143725;573;46020;-92
2021/07/26 02:12:19;;;;;;;4.97;3.42;;;;;;;;;;143728;572;46021;-92
2021/07/26 02:14:45;;;;;;;6.53;3.42;;;;;;;;;;143727;608;46014;-90
2021/07/26 02:17:13;;;;;;;4.47;2.97;;;;;;;;;;143730;617;46012;-91
2021/07/26 02:19:40;;;;;;;6.55;3.58;;;;;;;;;;143726;628;46021;-91
2021/07/26 02:22:06;;;;;;;6.45;3.75;;;;;;;;;;143732;574;45020;-92
2021/07/26 02:24:33;;;;;;;8.70;3.10;;;;;;;;;;143723;659;47020;-92
2021/07/26 02:27:04;;;;;;;6.97;3.75;;;;;;;;;;143730;636;46013;-93
2021/07/26 02:29:33;;;;;;;10.75;3.53;;;;;;;;;;143726;580;46020;-91
2021/07/26 02:32:01;;;;;;;4.55;3.50;;;;;;;;;;143728;621;46020;-92
2021/07/26 02:34:29;;;;;;;7.62;2.70;;;;;;;;;;143727;587;46913;-89
2021/07/26 02:36:55;;;;;;;6.40;3.12;;;;;;;;;;143733;584;45916;-90
2021/07/26 02:39:24;;;;;;;5.50;3.55;;;;;;;;;;143727;578;45911;-91
2021/07/26 02:41:55;;;;;;;10.32;4.10;;;;;;;;;;143731;569;46021;-91
2021/07/26 02:59:47;;;;;;;5.72;2.97;;;;;;;;;;143728;610;46022;-91
2021/07/26 03:02:19;;;;;;;7.25;3.30;;;;;;;;;;143731;570;45018;-91
2021/07/26 03:04:54;;;;;;;3.20;2.75;;;;;;;;;;143728;595;46023;-91
2021/07/26 03:07:22;;;;;;;5.82;3.40;;;;;;;;;;143730;644;45917;-91
2021/07/26 03:09:48;;;;;;;5.35;3.30;;;;;;;;;;143725;616;46021;-90
2021/07/26 03:12:27;;;;;;;13.45;4.53;;;;;;;;;;143726;596;46021;-92
2021/07/26 03:14:54;;;;;;;5.25;3.42;;;;;;;;;;143717;595;47020;-90
2021/07/26 03:17:24;;;;;;;7.97;4.20;;;;;;;;;;143726;570;46013;-90
2021/07/26 03:19:55;;;;;;;5.47;3.40;;;;;;;;;;143725;641;46021;-89
2021/07/26 03:23:07;;;;;;;6.43;3.05;;;;;;;;;;143731;576;45024;-93
2021/07/26 03:25:38;;;;;;;8.32;3.47;;;;;;;;;;143721;621;46915;-90
2021/07/26 03:28:05;;;;;;;10.02;3.45;;;;;;;;;;143726;566;46012;-89
2021/07/26 03:30:33;;;;;;;9.63;3.60;;;;;;;;;;143723;576;47020;-90
2021/07/26 03:33:00;;;;;;;7.78;3.45;;;;;;;;;;143728;569;46021;-88
2021/07/26 03:35:27;;;;;;;7.18;3.28;;;;;;;;;;143724;582;47020;-92
2021/07/26 03:37:56;;;;;;;16.60;3.83;;;;;;;;;;143726;586;46020;-91
2021/07/26 03:40:24;;;;;;;9.60;3.58;;;;;;;;;;143722;612;46021;-90
2021/07/26 03:42:51;;;;;;;12.88;4.25;;;;;;;;;;143731;569;46018;-90
2021/07/26 03:45:20;;;;;;;11.80;3.53;;;;;;;;;;143728;662;46014;-91
2021/07/26 03:47:47;;;;;;;11.40;4.20;;;;;;;;;;143727;572;46012;-92
2021/07/26 03:50:15;;;;;;;12.90;3.53;;;;;;;;;;143730;578;46020;-91
2021/07/26 03:52:55;;;;;;;6.87;3.72;;;;;;;;;;143729;642;46018;-90
2021/07/26 03:55:29;;;;;;;12.15;3.75;;;;;;;;;;143721;627;47022;-90
2021/07/26 03:57:58;;;;;;;12.50;4.10;;;;;;;;;;143725;639;47020;-89
2021/07/26 04:00:27;;;;;;;7.65;3.53;;;;;;;;;;143724;592;47020;-92
2021/07/26 04:03:07;;;;;;;15.95;4.03;;;;;;;;;;143729;638;46013;-90
2021/07/26 04:05:40;;;;;;;7.03;3.42;;;;;;;;;;143720;631;47023;-91
2021/07/26 04:08:12;;;;;;;9.82;3.55;;;;;;;;;;143727;570;46918;-90
2021/07/26 04:10:44;;;;;;;13.13;4.03;;;;;;;;;;143726;668;46021;-88
2021/07/26 04:13:10;;;;;;;9.43;3.70;;;;;;;;;;143728;647;46012;-91
2021/07/26 04:15:39;;;;;;;10.35;3.72;;;;;;;;;;143728;565;46022;-89
2021/07/26 04:18:06;;;;;;;9.18;4.10;;;;;;;;;;143728;565;46012;-90
2021/07/26 04:20:33;;;;;;;10.10;3.95;;;;;;;;;;143727;587;46020;-89
2021/07/26 04:23:00;;;;;;;7.18;4.15;;;;;;;;;;143728;618;46021;-93
2021/07/26 04:25:27;;;;;;;5.35;3.40;;;;;;;;;;143727;601;46022;-93
2021/07/26 04:27:54;;;;;;;17.27;4.93;;;;;;;;;;143726;654;46012;-93
2021/07/26 04:30:23;;;;;;;17.62;5.45;;;;;;;;;;143722;587;45912;-88
2021/07/26 04:32:50;;;;;;;7.43;4.15;;;;;;;;;;143728;588;46019;-91
2021/07/26 04:35:18;;;;;;;11.68;4.47;;;;;;;;;;143730;612;46020;-91
2021/07/26 04:37:45;;;;;;;14.35;5.15;;;;;;;;;;143729;594;45918;-91
2021/07/26 04:40:12;;;;;;;7.07;4.10;;;;;;;;;;143729;644;46020;-91
2021/07/26 04:42:42;;;;;;;10.93;3.92;;;;;;;;;;143731;659;45020;-90
2021/07/26 04:45:11;;;;;;;12.30;3.83;;;;;;;;;;143725;590;47022;-91
2021/07/26 04:47:38;;;;;;;9.98;4.18;;;;;;;;;;143730;622;46012;-91
2021/07/26 04:50:07;;;;;;;12.75;4.30;;;;;;;;;;143728;603;45911;-90
2021/07/26 04:52:35;;;;;;;20.50;4.65;;;;;;;;;;143732;637;46012;-90
2021/07/26 04:55:12;;;;;;;;;;;;;;;;;;;;;
2021/07/26 04:57:44;;;;;;;12.63;4.75;;;;;;;;;;143727;601;46020;-90
2021/07/26 05:00:13;;;;;;;10.20;3.80;;;;;;;;;;143729;569;46020;-91
2021/07/26 05:02:41;;;;;;;10.43;3.92;;;;;;;;;;143730;575;46024;-90
2021/07/26 05:05:08;;;;;;;13.68;4.22;;;;;;;;;;143727;669;46023;-90
2021/07/26 05:07:35;;;;;;;8.05;3.83;;;;;;;;;;143721;626;48020;-94
2021/07/26 05:10:02;;;;;;;12.48;5.18;;;;;;;;;;143727;578;46021;-90
2021/07/26 05:12:29;;;;;;;22.02;5.20;;;;;;;;;;143728;586;46012;-89
2021/07/26 05:14:58;;;;;;;10.13;3.72;;;;;;;;;;143727;580;46020;-89
2021/07/26 05:17:33;;;;;;;15.02;3.80;;;;;;;;;;143727;600;46013;-92
2021/07/26 05:19:59;;;;;;;17.73;4.70;;;;;;;;;;143720;571;46018;-92
2021/07/26 05:22:26;;;;;;;7.00;3.47;;;;;;;;;;143729;632;47012;-89
2021/07/26 05:24:53;;;;;;;7.50;3.90;;;;;;;;;;143728;648;46021;-89
2021/07/26 05:27:28;;;;;;;6.75;3.35;;;;;;;;;;143729;567;46020;-90
2021/07/26 05:29:54;;;;;;;11.57;4.75;;;;;;;;;;143726;566;47020;-92
2021/07/26 05:32:22;;;;;;;6.82;3.37;;;;;;;;;;143730;579;46013;-90
2021/07/26 05:34:49;;;;;;;11.40;3.67;;;;;;;;;;143732;585;45913;-89
2021/07/26 05:37:17;;;;;;;10.80;4.22;;;;;;;;;;143725;585;46917;-92
2021/07/26 05:39:43;;;;;;;13.57;4.18;;;;;;;;;;143726;583;46021;-90
2021/07/26 05:42:11;;;;;;;28.95;4.65;;;;;;;;;;143728;606;46012;-91
2021/07/26 05:44:42;;;;;;;9.13;4.25;;;;;;;;;;143718;569;47022;-91
2021/07/26 05:47:09;;;;;;;12.70;4.25;;;;;;;;;;143727;634;46013;-92
2021/07/26 05:49:37;;;;;;;9.95;4.15;;;;;;;;;;143722;586;47020;-91
2021/07/26 05:52:04;;;;;;;14.52;4.12;;;;;;;;;;143728;586;47012;-89
2021/07/26 05:54:31;;;;;;;7.37;3.60;;;;;;;;;;143724;622;46022;-90
2021/07/26 05:56:57;;;;;;;4.62;2.92;;;;;;;;;;143727;592;46012;-90
2021/07/26 05:59:27;;;;;;;10.93;3.65;;;;;;;;;;143724;631;46020;-90
2021/07/26 06:01:54;;;;;;;7.00;3.50;;;;;;;;;;143728;582;46013;-90
2021/07/26 06:04:22;;;;;;;11.65;4.35;;;;;;;;;;143728;626;46020;-91
2021/07/26 06:06:51;;;;;;;12.15;4.15;;;;;;;;;;143725;579;46020;-91
2021/07/26 06:09:18;;;;;;;16.30;3.90;;;;;;;;;;143720;566;46021;-92
2021/07/26 06:11:46;;;;;;;20.83;4.90;;;;;;;;;;143728;598;46012;-91
2021/07/26 06:14:13;;;;;;;26.25;7.40;;;;;;;;;;143723;564;47022;-91
2021/07/26 06:16:44;;;;;;;18.90;8.68;;;;;;;;;;143725;597;46013;-92
2021/07/26 06:19:11;;;;;;;35.30;9.30;;;;;;;;;;143725;589;46021;-90
2021/07/26 06:21:45;;;;;;;23.33;11.20;;;;;;;;;;143729;598;46018;-91
2021/07/26 06:24:12;;;;;;;23.98;8.10;;;;;;;;;;143727;871;46022;-93
2021/07/26 06:26:39;;;;;;;20.50;8.55;;;;;;;;;;143724;601;47020;-90
2021/07/26 06:29:06;;;;;;;15.27;7.12;;;;;;;;;;143723;577;47020;-92
2021/07/26 06:31:33;;;;;;;13.20;6.50;;;;;;;;;;143728;570;47012;-92
2021/07/26 06:34:17;;;;;;;;;;;;;;;;;;;;;
2021/07/26 06:36:44;;;;;;;14.52;5.80;;;;;;;;;;143728;905;45915;-90
2021/07/26 06:39:12;;;;;;;15.63;5.82;;;;;;;;;;143728;857;46021;-91
2021/07/26 06:41:40;;;;;;;13.57;4.97;;;;;;;;;;143729;629;46020;-92
2021/07/26 06:44:07;;;;;;;11.82;5.28;;;;;;;;;;143723;972;48020;-93
2021/07/26 06:46:34;;;;;;;14.40;5.85;;;;;;;;;;143728;610;46013;-94
2021/07/26 06:49:00;;;;;;;20.75;5.20;;;;;;;;;;143724;581;47020;-92
2021/07/26 06:51:34;;;;;;;13.93;4.47;;;;;;;;;;143730;848;46012;-94
2021/07/26 06:54:02;;;;;;;6.68;3.92;;;;;;;;;;143725;565;47020;-92
2021/07/26 06:56:29;;;;;;;8.93;3.92;;;;;;;;;;143726;569;46020;-92
2021/07/26 06:58:56;;;;;;;13.02;4.68;;;;;;;;;;143719;578;46911;-91
2021/07/26 07:01:23;;;;;;;10.18;4.05;;;;;;;;;;143728;972;46020;-93
2021/07/26 07:03:53;;;;;;;7.75;3.97;;;;;;;;;;143729;567;46023;-94
2021/07/26 07:06:23;;;;;;;6.90;3.85;;;;;;;;;;143728;595;46020;-92
2021/07/26 07:08:52;;;;;;;10.88;3.47;;;;;;;;;;143728;685;46021;-91
2021/07/26 07:11:24;;;;;;;10.38;3.28;;;;;;;;;;143732;597;46012;-93
2021/07/26 07:13:52;;;;;;;4.78;2.80;;;;;;;;;;143725;564;46022;-90
2021/07/26 07:16:21;;;;;;;5.78;3.55;;;;;;;;;;143727;630;46013;-92
2021/07/26 07:18:50;;;;;;;4.20;2.62;;;;;;;;;;143726;702;46020;-93
2021/07/26 07:21:31;;;;;;;6.65;3.15;;;;;;;;;;143729;702;46012;-92
2021/07/26 07:24:05;;;;;;;10.23;3.12;;;;;;;;;;143722;664;46022;-91
2021/07/26 07:26:33;;;;;;;4.57;2.90;;;;;;;;;;143725;596;48012;-90
2021/07/26 07:29:04;;;;;;;7.03;3.35;;;;;;;;;;143727;662;46014;-90
2021/07/26 07:31:36;;;;;;;11.95;3.15;;;;;;;;;;143726;566;47021;-92
2021/07/26 07:34:07;;;;;;;13.93;3.60;;;;;;;;;;143728;691;46023;-93
2021/07/26 07:36:36;;;;;;;9.75;4.25;;;;;;;;;;143728;666;46012;-91
2021/07/26 07:39:05;;;;;;;11.50;3.75;;;;;;;;;;143730;601;46014;-90
2021/07/26 07:41:34;;;;;;;8.20;4.05;;;;;;;;;;143728;582;46012;-93
2021/07/26 07:44:00;;;;;;;12.07;5.28;;;;;;;;;;143724;580;47022;-93
2021/07/26 07:46:30;;;;;;;14.98;4.95;;;;;;;;;;143728;584;46012;-91
2021/07/26 07:49:10;;;;;;;9.00;4.85;;;;;;;;;;143721;592;46020;-92
2021/07/26 07:51:38;;;;;;;8.20;3.75;;;;;;;;;;143731;565;46012;-90
2021/07/26 07:54:07;;;;;;;5.87;3.97;;;;;;;;;;143731;573;45914;-91
2021/07/26 07:56:34;;;;;;;4.82;3.30;;;;;;;;;;143729;588;45917;-91
2021/07/26 08:04:05;;;;;;;10.55;3.92;;;;;;;;;;143729;598;46020;-67
2021/07/26 08:06:31;;;;;;;9.05;3.45;;;;;;;;;;143727;571;46012;-68
2021/07/26 08:08:58;;;;;;;6.68;3.20;;;;;;;;;;143723;567;47020;-67
2021/07/26 08:11:24;;;;;;;8.43;3.30;;;;;;;;;;143727;633;46020;-67
2021/07/26 08:13:51;;;;;;;7.28;3.30;;;;;;;;;;143721;618;46023;-68
2021/07/26 08:16:22;;;;;;;8.02;3.28;;;;;;;;;;143728;595;46021;-66
2021/07/26 08:18:49;;;;;;;6.37;2.95;;;;;;;;;;143726;589;46020;-67
2021/07/26 08:21:15;;;;;;;4.50;3.05;;;;;;;;;;143730;625;46020;-67
2021/07/26 08:23:42;;;;;;;5.45;3.10;;;;;;;;;;143725;585;47021;-65
2021/07/26 08:26:11;;;;;;;7.65;3.53;;;;;;;;;;143727;590;46012;-67
2021/07/26 08:28:38;;;;;;;9.98;2.95;;;;;;;;;;143725;850;46020;-66
2021/07/26 08:31:05;;;;;;;8.60;2.97;;;;;;;;;;143728;580;47013;-65
2021/07/26 08:33:31;;;;;;;5.57;2.85;;;;;;;;;;143721;720;47020;-67
2021/07/26 08:35:58;;;;;;;9.85;3.75;;;;;;;;;;143729;695;46919;-67
2021/07/26 08:38:24;;;;;;;6.03;2.62;;;;;;;;;;143726;585;47014;-67
2021/07/26 08:40:51;;;;;;;8.65;3.80;;;;;;;;;;143729;581;46012;-67
2021/07/26 08:43:17;;;;;;;8.60;3.25;;;;;;;;;;143724;584;47022;-67
2021/07/26 08:45:45;;;;;;;7.40;3.00;;;;;;;;;;143727;594;46021;-66
2021/07/26 08:48:14;;;;;;;5.43;2.80;;;;;;;;;;143729;683;46913;-66
2021/07/26 08:50:42;;;;;;;8.20;3.45;;;;;;;;;;143729;565;46020;-65
2021/07/26 08:53:09;;;;;;;9.80;2.50;;;;;;;;;;143727;589;47021;-68
2021/07/26 08:55:36;;;;;;;5.70;3.12;;;;;;;;;;143727;589;46012;-65
2021/07/26 08:58:04;;;;;;;8.23;3.08;;;;;;;;;;143725;579;46040;-65
2021/07/26 09:00:30;;;;;;;11.77;3.28;;;;;;;;;;143730;566;46020;-66
2021/07/26 09:02:57;;;;;;;8.07;3.00;;;;;;;;;;143720;569;47020;-69
2021/07/26 09:05:24;;;;;;;5.85;2.80;;;;;;;;;;143727;577;46012;-65
2021/07/26 09:07:51;;;;;;;15.10;3.75;;;;;;;;;;143725;647;47021;-67
2021/07/26 09:10:22;;;;;;;7.37;3.35;;;;;;;;;;143728;635;46012;-66
2021/07/26 09:12:50;;;;;;;5.68;3.03;;;;;;;;;;143725;770;47020;-66
2021/07/26 09:15:37;;;;;;;5.55;3.33;;;;;;;;;;143726;589;46012;-65
2021/07/26 09:18:05;;;;;;;10.25;3.10;;;;;;;;;;143726;598;47014;-68
2021/07/26 09:20:34;;;;;;;10.07;3.35;;;;;;;;;;143732;614;46020;-66
2021/07/26 09:23:14;;;;;;;8.30;2.90;;;;;;;;;;143724;587;47021;-66
2021/07/26 09:25:48;;;;;;;4.45;3.00;;;;;;;;;;143726;577;47012;-67
2021/07/26 09:28:16;;;;;;;6.90;2.80;;;;;;;;;;143722;595;47020;-66
2021/07/26 09:30:53;;;;;;;7.05;3.47;;;;;;;;;;143727;569;47012;-65
2021/07/26 09:33:45;;;;;;;9.18;3.78;;;;;;;;;;143724;582;47020;-66
2021/07/26 09:36:20;;;;;;;9.67;3.17;;;;;;;;;;143726;596;46920;-66
2021/07/26 09:39:04;;;;;;;3.83;2.85;;;;;;;;;;143726;617;46048;-66
2021/07/26 09:41:48;;;;;;;7.00;3.35;;;;;;;;;;143727;717;46020;-74
2021/07/26 09:44:20;;;;;;;10.70;3.28;;;;;;;;;;143724;651;47022;-66
2021/07/26 09:46:47;;;;;;;5.10;2.92;;;;;;;;;;143727;572;46013;-66
2021/07/26 09:49:15;;;;;;;5.43;3.37;;;;;;;;;;143724;569;47020;-67
2021/07/26 09:51:42;;;;;;;8.55;3.20;;;;;;;;;;143728;603;46012;-67
2021/07/26 09:54:09;;;;;;;10.98;3.10;;;;;;;;;;143722;604;46021;-67
2021/07/26 09:56:36;;;;;;;12.80;3.72;;;;;;;;;;143726;592;46012;-66
2021/07/26 09:59:03;;;;;;;6.87;2.92;;;;;;;;;;143724;586;47020;-65
2021/07/26 10:01:30;;;;;;;13.55;3.42;;;;;;;;;;143723;586;47013;-65
2021/07/26 10:03:57;;;;;;;8.27;3.10;;;;;;;;;;143721;596;47022;-66
2021/07/26 10:06:23;;;;;;;6.97;3.80;;;;;;;;;;143725;622;46919;-66
2021/07/26 10:08:50;;;;;;;5.95;3.10;;;;;;;;;;143723;682;47021;-67
2021/07/26 10:11:17;;;;;;;5.00;2.72;;;;;;;;;;143728;589;46012;-66
2021/07/26 10:13:47;;;;;;;6.47;2.87;;;;;;;;;;143721;569;47020;-67
2021/07/26 10:16:18;;;;;;;14.35;2.75;;;;;;;;;;143725;601;46919;-64
2021/07/26 10:18:49;;;;;;;6.87;2.80;;;;;;;;;;143719;569;46020;-66
2021/07/26 10:21:18;;;;;;;11.27;3.50;;;;;;;;;;143726;593;46012;-66
2021/07/26 10:24:00;;;;;;;11.90;3.62;;;;;;;;;;143723;574;46022;-64
2021/07/26 10:26:39;;;;;;;12.75;2.83;;;;;;;;;;143722;573;47012;-66
2021/07/26 10:29:05;;;;;;;4.18;2.33;;;;;;;;;;143722;594;47020;-65
2021/07/26 10:31:37;;;;;;;8.52;2.53;;;;;;;;;;143728;641;46012;-65
2021/07/26 10:34:19;;;;;;;5.90;2.33;;;;;;;;;;143724;745;46022;-67
2021/07/26 10:36:47;;;;;;;10.35;2.97;;;;;;;;;;143725;737;46919;-65
2021/07/26 10:39:15;;;;;;;11.25;2.70;;;;;;;;;;143721;650;47021;-66
2021/07/26 10:42:01;;;;;;;5.12;2.65;;;;;;;;;;143725;586;47012;-66
2021/07/26 10:44:47;;;;;;;3.55;2.20;;;;;;;;;;143719;594;47022;-67
2021/07/26 10:47:14;;;;;;;4.12;2.60;;;;;;;;;;143722;595;47012;-66
2021/07/26 10:50:11;;;;;;;6.32;2.75;;;;;;;;;;143728;730;46020;-66
2021/07/26 10:52:47;;;;;;;5.50;2.80;;;;;;;;;;143724;653;46013;-67
2021/07/26 10:55:51;;;;;;;6.40;3.17;;;;;;;;;;143722;613;47020;-67
2021/07/26 10:58:53;;;;;;;6.57;2.47;;;;;;;;;;143724;587;46012;-65
2021/07/26 11:01:39;;;;;;;6.35;2.72;;;;;;;;;;143723;566;47021;-66
2021/07/26 11:04:33;;;;;;;4.50;2.85;;;;;;;;;;143727;565;46012;-66
2021/07/26 11:07:06;;;;;;;4.70;2.87;;;;;;;;;;143722;565;46049;-65
2021/07/26 11:09:43;;;;;;;4.78;2.28;;;;;;;;;;143725;579;46012;-65
2021/07/26 11:12:10;;;;;;;5.80;2.60;;;;;;;;;;143721;741;47020;-66
2021/07/26 11:14:37;;;;;;;3.58;2.65;;;;;;;;;;143725;587;47012;-65
2021/07/26 11:17:08;;;;;;;6.37;2.97;;;;;;;;;;143719;589;47023;-66
2021/07/26 11:20:02;;;;;;;5.12;2.37;;;;;;;;;;143722;576;47020;-66
2021/07/26 11:22:58;;;;;;;4.80;2.50;;;;;;;;;;143723;573;47021;-66
2021/07/26 11:25:25;;;;;;;6.43;2.28;;;;;;;;;;143724;623;48012;-66
2021/07/26 11:27:55;;;;;;;4.87;2.58;;;;;;;;;;143726;569;46014;-65
2021/07/26 11:30:22;;;;;;;7.70;2.20;;;;;;;;;;143725;598;46013;-66
2021/07/26 11:32:53;;;;;;;4.93;2.37;;;;;;;;;;143722;590;47020;-65
2021/07/26 11:35:20;;;;;;;9.38;2.72;;;;;;;;;;143723;615;47020;-65
2021/07/26 11:37:46;;;;;;;4.68;2.20;;;;;;;;;;143718;658;47021;-67
2021/07/26 11:40:14;;;;;;;8.45;1.90;;;;;;;;;;143725;600;46012;-65
2021/07/26 11:42:42;;;;;;;7.00;2.22;;;;;;;;;;143722;617;47020;-67
2021/07/26 11:45:12;;;;;;;4.32;2.20;;;;;;;;;;143729;574;46012;-65
2021/07/26 11:47:41;;;;;;;5.68;2.50;;;;;;;;;;143726;574;46023;-65
2021/07/26 11:50:12;;;;;;;6.05;2.45;;;;;;;;;;143723;569;46012;-65
2021/07/26 11:52:52;;;;;;;6.25;2.53;;;;;;;;;;143722;570;47021;-67
2021/07/26 11:55:19;;;;;;;6.97;2.47;;;;;;;;;;143728;695;46012;-66
2021/07/26 11:58:12;;;;;;;9.88;2.90;;;;;;;;;;143721;565;47022;-66
2021/07/26 12:00:48;;;;;;;8.00;2.67;;;;;;;;;;143723;595;47012;-65
2021/07/26 12:03:20;;;;;;;10.38;2.47;;;;;;;;;;143720;718;47020;-66
2021/07/26 12:05:47;;;;;;;7.80;2.62;;;;;;;;;;143726;581;46012;-66
2021/07/26 12:08:18;;;;;;;8.07;2.37;;;;;;;;;;143723;577;47023;-66
2021/07/26 12:10:46;;;;;;;4.57;2.17;;;;;;;;;;143722;566;47020;-66
2021/07/26 12:13:18;;;;;;;4.60;2.10;;;;;;;;;;143720;610;47020;-65
2021/07/26 12:15:44;;;;;;;;;;;;;;;;;;143733;970;46012;-65
2021/07/26 12:18:14;;;;;;;4.93;2.10;;;;;;;;;;143727;564;48020;-68
2021/07/26 12:21:12;;;;;;;2.58;2.20;;;;;;;;;;143724;637;46012;-66
2021/07/26 12:23:43;;;;;;;7.18;2.25;;;;;;;;;;143720;571;47023;-65
2021/07/26 12:26:12;;;;;;;8.25;2.53;;;;;;;;;;143724;640;46018;-65
2021/07/26 12:28:50;;;;;;;5.25;2.28;;;;;;;;;;143718;662;47022;-67
2021/07/26 12:31:37;;;;;;;6.00;2.42;;;;;;;;;;143726;707;46012;-65
2021/07/26 12:34:29;;;;;;;4.75;1.90;;;;;;;;;;143721;580;47020;-65
2021/07/26 12:37:06;;;;;;;2.90;1.85;;;;;;;;;;143724;638;47010;-67
2021/07/26 12:39:39;;;;;;;3.75;2.47;;;;;;;;;;143722;588;47023;-66
2021/07/26 12:42:21;;;;;;;6.55;2.50;;;;;;;;;;143723;599;48010;-65
2021/07/26 12:44:48;;;;;;;7.43;2.28;;;;;;;;;;143724;564;46043;-67
2021/07/26 12:47:34;;;;;;;8.88;2.10;;;;;;;;;;143726;573;46012;-66
2021/07/26 12:50:01;;;;;;;8.55;2.30;;;;;;;;;;143720;572;47022;-68
2021/07/26 12:52:27;;;;;;;6.37;2.00;;;;;;;;;;143723;588;46021;-67
2021/07/26 12:54:54;;;;;;;7.95;2.05;;;;;;;;;;143718;602;47020;-67
2021/07/26 12:57:20;;;;;;;3.35;2.65;;;;;;;;;;143722;643;47020;-65
2021/07/26 12:59:47;;;;;;;2.35;1.85;;;;;;;;;;143722;590;47024;-65
2021/07/26 13:02:13;;;;;;;3.78;2.17;;;;;;;;;;143724;566;46012;-66
2021/07/26 13:04:39;;;;;;;10.75;2.28;;;;;;;;;;143723;613;47020;-65
2021/07/26 13:07:06;;;;;;;9.07;3.00;;;;;;;;;;143725;580;46021;-64
2021/07/26 13:09:32;;;;;;;5.85;2.40;;;;;;;;;;143722;620;47020;-65
2021/07/26 13:11:59;;;;;;;5.07;2.30;;;;;;;;;;143724;595;46012;-65
2021/07/26 13:14:25;;;;;;;3.62;2.33;;;;;;;;;;143720;612;47021;-65
2021/07/26 13:16:52;;;;;;;4.10;1.98;;;;;;;;;;143726;576;47012;-65
2021/07/26 13:19:18;;;;;;;3.97;2.45;;;;;;;;;;143718;649;47020;-65
2021/07/26 13:21:45;;;;;;;7.12;2.37;;;;;;;;;;143727;567;46012;-65
2021/07/26 13:24:12;;;;;;;5.55;2.10;;;;;;;;;;143725;644;46047;-65
2021/07/26 13:26:39;;;;;;;7.65;2.33;;;;;;;;;;143726;581;46012;-65
2021/07/26 13:29:05;;;;;;;6.97;2.35;;;;;;;;;;143721;574;47021;-66
2021/07/26 13:31:33;;;;;;;8.27;2.83;;;;;;;;;;143725;582;46012;-66
2021/07/26 13:33:59;;;;;;;3.87;2.12;;;;;;;;;;143720;587;47032;-67
2021/07/26 13:36:26;;;;;;;5.87;2.70;;;;;;;;;;143725;570;47011;-66
2021/07/26 13:38:53;;;;;;;11.43;2.72;;;;;;;;;;143723;585;47020;-65
2021/07/26 13:41:19;;;;;;;11.20;3.20;;;;;;;;;;143725;585;46020;-67
2021/07/26 13:43:45;;;;;;;7.47;3.03;;;;;;;;;;143716;706;48021;-66
2021/07/26 13:46:13;;;;;;;5.40;2.47;;;;;;;;;;143725;615;46012;-66
2021/07/26 13:48:39;;;;;;;4.95;2.42;;;;;;;;;;143721;577;47022;-66
2021/07/26 13:51:07;;;;;;;3.37;2.35;;;;;;;;;;143725;631;46013;-67
2021/07/26 13:53:33;;;;;;;3.12;2.40;;;;;;;;;;143721;564;47020;-65
2021/07/26 13:56:00;;;;;;;5.75;2.50;;;;;;;;;;143724;684;47020;-65
2021/07/26 13:58:26;;;;;;;5.68;2.42;;;;;;;;;;143723;582;47021;-65
2021/07/26 14:00:56;;;;;;;5.37;2.45;;;;;;;;;;143727;585;46012;-67
2021/07/26 14:03:22;;;;;;;3.53;2.30;;;;;;;;;;143722;577;46020;-67
2021/07/26 14:05:50;;;;;;;6.57;2.12;;;;;;;;;;143725;589;46013;-66
2021/07/26 14:08:16;;;;;;;4.00;2.55;;;;;;;;;;143718;597;47020;-65
2021/07/26 14:10:43;;;;;;;6.47;2.45;;;;;;;;;;143723;584;46012;-63
2021/07/26 14:13:09;;;;;;;3.47;2.25;;;;;;;;;;143721;632;47021;-65
2021/07/26 14:15:37;;;;;;;7.47;3.37;;;;;;;;;;143725;588;47012;-65
2021/07/26 14:18:04;;;;;;;3.20;2.03;;;;;;;;;;143721;565;47020;-65
2021/07/26 14:20:30;;;;;;;6.10;2.35;;;;;;;;;;143724;631;46020;-66
2021/07/26 14:22:57;;;;;;;8.57;2.50;;;;;;;;;;143720;626;48021;-65
2021/07/26 14:25:23;;;;;;;9.38;2.15;;;;;;;;;;143725;570;46012;-64
2021/07/26 14:27:50;;;;;;;5.45;2.20;;;;;;;;;;143722;586;47022;-64
2021/07/26 14:30:16;;;;;;;6.15;2.15;;;;;;;;;;143726;584;46021;-65
2021/07/26 14:32:42;;;;;;;9.48;2.40;;;;;;;;;;143718;583;47020;-64
2021/07/26 14:35:09;;;;;;;3.72;2.20;;;;;;;;;;143725;587;48011;-64
2021/07/26 14:37:36;;;;;;;3.72;2.35;;;;;;;;;;143721;619;47023;-66
2021/07/26 14:40:04;;;;;;;3.83;2.22;;;;;;;;;;143725;564;46012;-65
2021/07/26 14:42:30;;;;;;;9.27;2.55;;;;;;;;;;143722;576;47020;-64
2021/07/26 14:44:57;;;;;;;6.15;2.65;;;;;;;;;;143729;585;46012;-66
2021/07/26 14:47:23;;;;;;;8.10;2.78;;;;;;;;;;143720;597;47020;-65
2021/07/26 14:49:49;;;;;;;4.60;2.50;;;;;;;;;;143725;588;46918;-68
2021/07/26 14:52:16;;;;;;;8.80;3.55;;;;;;;;;;143725;636;46021;-67
2021/07/26 14:54:43;;;;;;;7.40;2.33;;;;;;;;;;143727;605;46020;-65
2021/07/26 14:57:09;;;;;;;5.93;2.53;;;;;;;;;;143717;564;47022;-66
2021/07/26 14:59:36;;;;;;;7.80;4.05;;;;;;;;;;143725;659;46013;-66
2021/07/26 15:02:03;;;;;;;9.48;2.70;;;;;;;;;;143722;667;47020;-68
2021/07/26 15:04:29;;;;;;;7.40;2.40;;;;;;;;;;143726;575;46012;-68
2021/07/26 15:06:56;;;;;;;8.48;2.95;;;;;;;;;;143723;564;47020;-65
2021/07/26 15:09:22;;;;;;;3.85;2.22;;;;;;;;;;143725;604;46012;-66
2021/07/26 15:11:49;;;;;;;3.85;2.08;;;;;;;;;;143720;589;47020;-65
2021/07/26 15:14:15;;;;;;;8.65;2.62;;;;;;;;;;143726;585;46021;-65
2021/07/26 15:16:42;;;;;;;11.48;3.67;;;;;;;;;;143724;580;47022;-64
2021/07/26 15:19:08;;;;;;;5.80;2.65;;;;;;;;;;143721;589;47020;-65
2021/07/26 15:21:35;;;;;;;5.78;2.78;;;;;;;;;;143722;604;47021;-66
2021/07/26 15:24:01;;;;;;;4.40;2.62;;;;;;;;;;143727;593;46020;-67
2021/07/26 15:26:28;;;;;;;4.53;2.35;;;;;;;;;;143721;564;47022;-68
2021/07/26 15:28:54;;;;;;;7.80;2.60;;;;;;;;;;143726;677;46012;-66